Time;durP1;ratioP1;P1;durP2;ratioP2;P2;SDS_P1;SDS_P2;PMS_P1;PMS_P2;Temp;Humidity;BMP_temperature;BMP_pressure;BME280_temperature;BME280_humidity;BME280_pressure;Samples;Min_cycle;Max_cycle;Signal;HPM_P1;HPM_P2
2023/05/18 00:02:14;;;;;;;2.47;1.25;;;;;14.20;102700.00;;;;5068332;28;20952;-77
2023/05/18 00:04:42;;;;;;;5.50;1.50;;;;;14.20;102691.00;;;;5085167;28;20229;-77
2023/05/18 00:07:09;;;;;;;5.32;1.35;;;;;14.20;102692.00;;;;5087821;28;20667;-77
2023/05/18 00:09:38;;;;;;;2.70;1.40;;;;;14.20;102693.00;;;;5088166;28;20209;-76
2023/05/18 00:12:06;;;;;;;2.83;1.48;;;;;14.10;102694.00;;;;5086443;28;20225;-77
2023/05/18 00:14:33;;;;;;;3.40;0.95;;;;;14.10;102697.00;;;;5085020;28;20221;-77
2023/05/18 00:17:01;;;;;;;3.38;1.20;;;;;14.10;102692.00;;;;5086660;28;20655;-77
2023/05/18 00:19:30;;;;;;;3.60;1.17;;;;;14.10;102691.00;;;;5087259;28;20259;-77
2023/05/18 00:21:58;;;;;;;3.00;1.13;;;;;14.10;102694.00;;;;5087754;28;20752;-77
2023/05/18 00:24:25;;;;;;;4.65;1.13;;;;;14.00;102700.00;;;;5083333;28;20220;-76
2023/05/18 00:26:52;;;;;;;2.38;1.20;;;;;14.00;102699.00;;;;5087879;28;20205;-77
2023/05/18 00:29:20;;;;;;;3.72;1.45;;;;;14.00;102702.00;;;;5085363;28;20202;-77
2023/05/18 00:31:47;;;;;;;1.42;1.10;;;;;14.00;102698.00;;;;5086549;28;20238;-77
2023/05/18 00:34:15;;;;;;;6.07;1.15;;;;;14.00;102699.00;;;;5085787;28;20214;-77
2023/05/18 00:36:44;;;;;;;2.75;1.23;;;;;13.90;102704.00;;;;5083986;28;20338;-77
2023/05/18 00:39:11;;;;;;;4.07;1.08;;;;;13.90;102707.00;;;;5083493;28;20570;-76
2023/05/18 00:41:39;;;;;;;4.38;1.10;;;;;13.90;102707.00;;;;5084247;28;20222;-77
2023/05/18 00:44:06;;;;;;;2.88;1.30;;;;;13.90;102708.00;;;;5085192;28;20217;-77
2023/05/18 00:46:33;;;;;;;2.72;1.35;;;;;13.90;102705.00;;;;5086923;28;20640;-77
2023/05/18 00:49:01;;;;;;;2.10;1.15;;;;;13.90;102701.00;;;;5085439;28;20203;-77
2023/05/18 00:51:29;;;;;;;3.75;1.40;;;;;13.80;102704.00;;;;5085790;28;20621;-77
2023/05/18 00:53:59;;;;;;;3.63;1.40;;;;;13.80;102710.00;;;;5086561;28;20198;-77
2023/05/18 00:56:28;;;;;;;6.05;1.38;;;;;13.80;102698.00;;;;5087095;28;20569;-77
2023/05/18 00:58:56;;;;;;;3.40;1.08;;;;;13.80;102701.00;;;;5086910;28;20213;-77
2023/05/18 01:01:27;;;;;;;3.03;1.30;;;;;13.70;102704.00;;;;5086109;28;20227;-77
2023/05/18 01:03:56;;;;;;;4.80;1.35;;;;;13.70;102711.00;;;;5082444;28;20202;-77
2023/05/18 01:06:25;;;;;;;2.97;1.25;;;;;13.70;102708.00;;;;5077225;28;20311;-77
2023/05/18 01:08:53;;;;;;;2.28;1.05;;;;;13.70;102713.00;;;;5087484;28;20195;-77
2023/05/18 01:11:33;;;;;;;5.45;2.13;;;;;13.60;102705.00;;;;5085080;28;20195;-77
2023/05/18 01:14:10;;;;;;;4.18;1.35;;;;;13.60;102709.00;;;;5084885;28;20190;-78
2023/05/18 01:16:43;;;;;;;4.45;1.35;;;;;13.60;102708.00;;;;5089239;28;20284;-77
2023/05/18 01:19:34;;;;;;;1.98;1.27;;;;;13.50;102708.00;;;;5089473;28;20278;-77
2023/05/18 01:22:11;;;;;;;2.03;0.90;;;;;13.60;102710.00;;;;5085719;28;20194;-77
2023/05/18 01:24:43;;;;;;;3.05;1.15;;;;;13.50;102705.00;;;;5085729;28;20310;-78
2023/05/18 01:27:16;;;;;;;3.20;1.33;;;;;13.50;102713.00;;;;5089509;28;20217;-78
2023/05/18 01:29:45;;;;;;;1.33;0.90;;;;;13.60;102708.00;;;;5090546;28;20642;-77
2023/05/18 01:32:18;;;;;;;2.00;1.20;;;;;13.50;102703.00;;;;5088926;28;20230;-77
2023/05/18 01:34:46;;;;;;;2.22;1.40;;;;;13.50;102709.00;;;;5089268;28;20613;-77
2023/05/18 01:37:14;;;;;;;6.50;1.65;;;;;13.50;102708.00;;;;5073843;28;20198;-78
2023/05/18 01:39:42;;;;;;;6.70;1.65;;;;;13.50;102702.00;;;;5089259;28;20195;-78
2023/05/18 01:42:17;;;;;;;5.72;1.63;;;;;13.40;102707.00;;;;5087368;28;20714;-78
2023/05/18 01:44:50;;;;;;;4.32;1.40;;;;;13.40;102706.00;;;;5088562;28;20349;-77
2023/05/18 01:47:19;;;;;;;1.88;1.20;;;;;13.50;102707.00;;;;5089404;28;20198;-78
2023/05/18 01:49:51;;;;;;;4.45;1.27;;;;;13.40;102711.00;;;;5085336;28;20297;-77
2023/05/18 01:52:22;;;;;;;3.85;1.77;;;;;13.40;102710.00;;;;5087363;28;20194;-77
2023/05/18 01:54:53;;;;;;;3.70;1.42;;;;;13.40;102705.00;;;;5088119;28;20207;-77
2023/05/18 01:57:27;;;;;;;3.38;1.17;;;;;13.40;102711.00;;;;5088479;28;20199;-77
2023/05/18 01:59:54;;;;;;;2.72;1.23;;;;;13.40;102709.00;;;;5089235;28;20198;-77
2023/05/18 02:02:22;;;;;;;2.88;1.17;;;;;13.40;102709.00;;;;5089913;28;20198;-78
2023/05/18 02:04:49;;;;;;;3.17;1.50;;;;;13.40;102710.00;;;;5089875;28;20214;-78
2023/05/18 02:07:16;;;;;;;2.85;1.42;;;;;13.40;102714.00;;;;5089264;28;20272;-78
2023/05/18 02:09:44;;;;;;;3.38;1.48;;;;;13.40;102702.00;;;;5089598;28;20206;-77
2023/05/18 02:12:11;;;;;;;2.17;1.17;;;;;13.40;102698.00;;;;5087092;28;20612;-78
2023/05/18 02:14:40;;;;;;;3.22;1.30;;;;;13.40;102701.00;;;;5087988;28;20199;-78
2023/05/18 02:17:07;;;;;;;2.88;1.60;;;;;13.30;102700.00;;;;5089230;28;20560;-78
2023/05/18 02:19:37;;;;;;;2.85;1.75;;;;;13.30;102708.00;;;;5086094;28;20202;-77
2023/05/18 02:22:05;;;;;;;6.47;2.20;;;;;13.30;102707.00;;;;5088724;28;20203;-77
2023/05/18 02:24:33;;;;;;;3.05;1.48;;;;;13.30;102701.00;;;;5091068;28;20260;-78
2023/05/18 02:27:01;;;;;;;4.80;1.58;;;;;13.30;102697.00;;;;5070331;28;20207;-77
2023/05/18 02:29:28;;;;;;;7.43;1.63;;;;;13.30;102705.00;;;;5084918;28;20345;-77
2023/05/18 02:31:57;;;;;;;2.95;1.48;;;;;13.20;102712.00;;;;5090100;28;20436;-77
2023/05/18 02:34:24;;;;;;;4.05;1.45;;;;;13.20;102694.00;;;;5090111;28;20197;-77
2023/05/18 02:36:52;;;;;;;2.17;1.40;;;;;13.20;102692.00;;;;5090690;28;20202;-77
2023/05/18 02:39:20;;;;;;;3.17;1.65;;;;;13.20;102698.00;;;;5088109;28;20198;-77
2023/05/18 02:41:47;;;;;;;3.63;1.27;;;;;13.20;102691.00;;;;5089494;28;20304;-77
2023/05/18 02:44:14;;;;;;;2.42;1.10;;;;;13.10;102694.00;;;;5089442;28;20209;-77
2023/05/18 02:46:41;;;;;;;1.95;1.40;;;;;13.10;102690.00;;;;5089287;28;20230;-77
2023/05/18 02:49:10;;;;;;;1.90;1.00;;;;;13.10;102690.00;;;;5088813;28;20571;-77
2023/05/18 02:51:38;;;;;;;3.70;1.45;;;;;13.10;102693.00;;;;5089670;28;20198;-75
2023/05/18 02:54:05;;;;;;;3.85;1.58;;;;;13.10;102691.00;;;;5089281;28;20198;-76
2023/05/18 02:56:32;;;;;;;4.80;1.42;;;;;13.10;102696.00;;;;5090073;28;20202;-76
2023/05/18 02:59:00;;;;;;;2.33;1.60;;;;;13.00;102698.00;;;;5087850;28;20191;-76
2023/05/18 03:01:27;;;;;;;3.35;1.65;;;;;13.10;102696.00;;;;5085842;28;20209;-77
2023/05/18 03:03:56;;;;;;;5.57;1.33;;;;;13.00;102702.00;;;;5090057;28;20671;-77
2023/05/18 03:06:25;;;;;;;2.42;1.75;;;;;13.00;102690.00;;;;5088708;28;20833;-76
2023/05/18 03:08:53;;;;;;;2.75;1.23;;;;;13.00;102687.00;;;;5088965;28;20203;-76
2023/05/18 03:11:21;;;;;;;3.97;1.38;;;;;13.00;102694.00;;;;5088149;28;20656;-76
2023/05/18 03:13:48;;;;;;;4.18;1.45;;;;;13.00;102691.00;;;;5086688;28;20585;-76
2023/05/18 03:16:15;;;;;;;4.40;1.55;;;;;13.00;102693.00;;;;5088770;28;20581;-76
2023/05/18 03:18:43;;;;;;;3.10;1.40;;;;;13.00;102695.00;;;;5082919;28;20199;-76
2023/05/18 03:21:12;;;;;;;5.50;1.48;;;;;12.90;102699.00;;;;5076902;28;20668;-77
2023/05/18 03:23:41;;;;;;;3.05;1.52;;;;;12.90;102695.00;;;;5088930;28;20655;-76
2023/05/18 03:26:10;;;;;;;4.70;1.42;;;;;12.90;102699.00;;;;5088359;28;20218;-77
2023/05/18 03:28:37;;;;;;;3.00;1.33;;;;;12.90;102697.00;;;;5088651;28;20196;-77
2023/05/18 03:31:05;;;;;;;5.07;1.50;;;;;12.90;102695.00;;;;5080781;28;20233;-77
2023/05/18 03:33:32;;;;;;;7.15;1.67;;;;;12.90;102697.00;;;;5087750;28;20204;-76
2023/05/18 03:36:03;;;;;;;2.00;1.27;;;;;12.80;102699.00;;;;5089672;28;20198;-77
2023/05/18 03:38:30;;;;;;;2.28;1.33;;;;;12.80;102702.00;;;;5087765;28;20570;-77
2023/05/18 03:40:59;;;;;;;2.38;1.30;;;;;12.80;102702.00;;;;5088034;28;20209;-77
2023/05/18 03:43:28;;;;;;;5.28;1.70;;;;;12.80;102700.00;;;;5088504;28;20222;-77
2023/05/18 03:45:55;;;;;;;3.05;1.67;;;;;12.80;102696.00;;;;5088491;28;20226;-76
2023/05/18 03:48:23;;;;;;;1.70;1.17;;;;;12.70;102700.00;;;;5088730;28;20210;-77
2023/05/18 03:50:51;;;;;;;3.67;1.70;;;;;12.70;102699.00;;;;5075443;28;20195;-77
2023/05/18 03:53:20;;;;;;;5.40;1.55;;;;;12.70;102702.00;;;;5070471;28;20211;-77
2023/05/18 03:55:48;;;;;;;6.65;2.03;;;;;12.70;102701.00;;;;5088662;28;20202;-76
2023/05/18 03:58:18;;;;;;;7.78;1.70;;;;;12.70;102697.00;;;;5088439;28;20198;-76
2023/05/18 04:00:46;;;;;;;4.07;1.10;;;;;12.70;102707.00;;;;5087373;28;20694;-76
2023/05/18 04:03:13;;;;;;;3.83;1.35;;;;;12.70;102703.00;;;;5087033;28;20194;-76
2023/05/18 04:05:42;;;;;;;6.30;2.05;;;;;12.60;102708.00;;;;5086610;28;20221;-77
2023/05/18 04:08:13;;;;;;;2.63;1.90;;;;;12.60;102705.00;;;;5081363;28;20221;-76
2023/05/18 04:10:41;;;;;;;4.25;1.33;;;;;12.60;102706.00;;;;5075994;28;20194;-77
2023/05/18 04:13:08;;;;;;;5.75;1.70;;;;;12.60;102704.00;;;;5079953;28;20221;-76
2023/05/18 04:15:37;;;;;;;5.65;1.67;;;;;12.60;102703.00;;;;5077980;28;20205;-77
2023/05/18 04:18:05;;;;;;;2.70;1.40;;;;;12.60;102708.00;;;;5075646;28;20187;-77
2023/05/18 04:20:32;;;;;;;6.70;1.65;;;;;12.60;102710.00;;;;5077417;28;20198;-77
2023/05/18 04:22:59;;;;;;;5.50;1.50;;;;;12.60;102707.00;;;;5071680;28;20194;-77
2023/05/18 04:25:27;;;;;;;2.72;1.17;;;;;12.60;102716.00;;;;5076469;28;20218;-76
2023/05/18 04:27:55;;;;;;;5.00;1.92;;;;;12.60;102720.00;;;;5075330;28;20222;-77
2023/05/18 04:30:23;;;;;;;2.90;1.52;;;;;12.60;102718.00;;;;5079731;28;20484;-76
2023/05/18 04:32:53;;;;;;;4.03;1.83;;;;;12.50;102715.00;;;;5073797;28;20579;-76
2023/05/18 04:35:20;;;;;;;3.25;1.50;;;;;12.60;102719.00;;;;5079006;28;20201;-76
2023/05/18 04:37:48;;;;;;;4.93;1.70;;;;;12.60;102716.00;;;;5080752;28;20186;-76
2023/05/18 04:40:15;;;;;;;2.72;1.70;;;;;12.60;102720.00;;;;5076598;28;20195;-76
2023/05/18 04:42:46;;;;;;;5.55;1.63;;;;;12.60;102724.00;;;;5075214;28;20592;-77
2023/05/18 04:45:16;;;;;;;4.70;1.83;;;;;12.60;102717.00;;;;5076742;28;20585;-76
2023/05/18 04:47:45;;;;;;;3.90;1.63;;;;;12.60;102728.00;;;;5080952;28;20252;-77
2023/05/18 04:50:14;;;;;;;2.67;1.45;;;;;12.60;102732.00;;;;5086137;28;20202;-76
2023/05/18 04:52:46;;;;;;;4.07;2.00;;;;;12.60;102731.00;;;;5089222;28;20190;-77
2023/05/18 04:55:14;;;;;;;1.38;1.00;;;;;12.60;102739.00;;;;5084638;28;20196;-76
2023/05/18 04:57:43;;;;;;;3.25;1.95;;;;;12.60;102740.00;;;;5089415;28;20680;-77
2023/05/18 05:00:11;;;;;;;5.90;2.08;;;;;12.70;102735.00;;;;5089995;28;20186;-77
2023/05/18 05:02:39;;;;;;;1.58;1.05;;;;;12.70;102735.00;;;;5090158;28;20652;-77
2023/05/18 05:05:08;;;;;;;6.95;1.63;;;;;12.70;102736.00;;;;5090020;28;20293;-77
2023/05/18 05:07:36;;;;;;;3.63;1.38;;;;;12.80;102745.00;;;;5089212;28;20650;-77
2023/05/18 05:10:04;;;;;;;5.18;1.85;;;;;12.80;102739.00;;;;5088910;28;20554;-77
2023/05/18 05:12:32;;;;;;;4.43;1.65;;;;;12.90;102747.00;;;;5086514;28;20194;-77
2023/05/18 05:14:59;;;;;;;5.13;1.85;;;;;12.90;102735.00;;;;5089537;28;20208;-77
2023/05/18 05:17:26;;;;;;;3.78;1.42;;;;;13.00;102738.00;;;;5087661;28;20707;-76
2023/05/18 05:19:54;;;;;;;3.03;1.70;;;;;13.00;102739.00;;;;5090195;28;20193;-77
2023/05/18 05:22:21;;;;;;;3.65;1.50;;;;;13.10;102733.00;;;;5090245;28;20202;-76
2023/05/18 05:24:49;;;;;;;5.60;1.75;;;;;13.10;102741.00;;;;5092474;28;20202;-78
2023/05/18 05:27:17;;;;;;;3.38;1.65;;;;;13.20;102734.00;;;;5086365;28;20233;-78
2023/05/18 05:29:46;;;;;;;3.00;1.73;;;;;13.20;102726.00;;;;5084167;28;20202;-77
2023/05/18 05:32:13;;;;;;;3.50;1.48;;;;;13.30;102738.00;;;;5079772;28;20249;-77
2023/05/18 05:34:44;;;;;;;9.13;1.90;;;;;13.30;102747.00;;;;5078639;28;20255;-76
2023/05/18 05:37:14;;;;;;;2.78;1.55;;;;;13.40;102739.00;;;;5079638;28;20195;-79
2023/05/18 05:39:42;;;;;;;6.30;1.98;;;;;13.40;102738.00;;;;5083738;28;20209;-79
2023/05/18 05:42:11;;;;;;;3.53;1.50;;;;;13.40;102737.00;;;;5082934;28;20215;-78
2023/05/18 05:44:39;;;;;;;3.50;1.48;;;;;13.50;102737.00;;;;5080806;28;20198;-79
2023/05/18 05:47:07;;;;;;;4.72;1.70;;;;;13.60;102734.00;;;;5077856;28;20222;-77
2023/05/18 05:49:37;;;;;;;3.00;1.40;;;;;13.60;102742.00;;;;5081408;28;20321;-79
2023/05/18 05:52:06;;;;;;;3.78;1.90;;;;;13.70;102740.00;;;;5080016;28;20203;-77
2023/05/18 05:54:33;;;;;;;5.15;1.58;;;;;13.70;102739.00;;;;5078527;28;20199;-77
2023/05/18 05:57:02;;;;;;;4.03;1.50;;;;;13.70;102749.00;;;;5082600;28;20191;-79
2023/05/18 05:59:31;;;;;;;4.57;1.35;;;;;13.80;102744.00;;;;5076615;28;20197;-77
2023/05/18 06:02:02;;;;;;;5.18;1.63;;;;;13.80;102745.00;;;;5077960;28;20194;-77
2023/05/18 06:04:29;;;;;;;3.33;1.40;;;;;13.90;102743.00;;;;5078963;28;20206;-78
2023/05/18 06:06:58;;;;;;;3.78;1.52;;;;;13.90;102742.00;;;;5078811;28;20308;-78
2023/05/18 06:09:26;;;;;;;3.53;1.70;;;;;13.90;102741.00;;;;5076023;28;20295;-78
2023/05/18 06:11:54;;;;;;;3.05;1.45;;;;;13.90;102742.00;;;;5079395;28;20339;-78
2023/05/18 06:14:25;;;;;;;5.32;2.05;;;;;14.00;102736.00;;;;5080194;28;20187;-79
2023/05/18 06:16:54;;;;;;;3.83;2.08;;;;;14.00;102749.00;;;;5078192;28;20206;-77
2023/05/18 06:19:22;;;;;;;5.65;1.40;;;;;14.10;102748.00;;;;5079500;28;20209;-79
2023/05/18 06:21:49;;;;;;;5.18;1.80;;;;;14.10;102747.00;;;;5079033;28;20599;-79
2023/05/18 06:24:17;;;;;;;2.88;1.60;;;;;14.20;102752.00;;;;5078129;28;20195;-77
2023/05/18 06:26:45;;;;;;;2.10;1.25;;;;;14.30;102760.00;;;;5081798;28;20210;-79
2023/05/18 06:29:12;;;;;;;5.82;1.92;;;;;14.30;102759.00;;;;5076702;28;20202;-77
2023/05/18 06:31:40;;;;;;;2.72;1.60;;;;;14.40;102769.00;;;;5080349;28;20222;-78
2023/05/18 06:34:15;;;;;;;3.58;1.52;;;;;14.40;102763.00;;;;5078575;28;20811;-78
2023/05/18 06:36:43;;;;;;;5.78;1.70;;;;;14.50;102765.00;;;;5079493;28;20281;-79
2023/05/18 06:39:10;;;;;;;4.35;1.60;;;;;14.60;102761.00;;;;5078510;28;21513;-78
2023/05/18 06:41:38;;;;;;;4.72;1.63;;;;;14.70;102762.00;;;;5080788;28;20207;-79
2023/05/18 06:44:05;;;;;;;3.17;1.48;;;;;14.80;102761.00;;;;5078189;28;20194;-77
2023/05/18 06:46:33;;;;;;;4.03;1.73;;;;;14.90;102771.00;;;;5076826;28;20767;-78
2023/05/18 06:49:00;;;;;;;4.38;1.35;;;;;15.00;102768.00;;;;5077161;28;20632;-78
2023/05/18 06:51:35;;;;;;;4.20;1.30;;;;;15.00;102771.00;;;;5082052;28;20198;-77
2023/05/18 06:54:03;;;;;;;7.47;1.75;;;;;15.10;102771.00;;;;5083264;28;20230;-77
2023/05/18 06:56:30;;;;;;;4.18;1.50;;;;;15.20;102776.00;;;;5087869;28;20199;-78
2023/05/18 06:58:58;;;;;;;6.90;1.60;;;;;15.30;102775.00;;;;5087922;28;20194;-78
2023/05/18 07:01:25;;;;;;;4.07;1.50;;;;;15.30;102773.00;;;;5084459;28;20291;-78
2023/05/18 07:03:53;;;;;;;3.28;1.30;;;;;15.40;102775.00;;;;5085771;28;20202;-80
2023/05/18 07:06:20;;;;;;;5.30;1.63;;;;;15.50;102779.00;;;;5084674;28;20222;-78
2023/05/18 07:08:49;;;;;;;7.63;1.35;;;;;15.50;102784.00;;;;5085981;28;20198;-78
2023/05/18 07:11:16;;;;;;;4.60;1.63;;;;;15.60;102777.00;;;;5089274;28;20201;-78
2023/05/18 07:13:43;;;;;;;4.50;1.38;;;;;15.70;102783.00;;;;5086681;28;20206;-78
2023/05/18 07:16:11;;;;;;;3.80;1.20;;;;;15.80;102779.00;;;;5086944;28;20197;-80
2023/05/18 07:18:40;;;;;;;3.97;1.60;;;;;15.90;102783.00;;;;5089736;28;20209;-78
2023/05/18 07:21:08;;;;;;;3.28;1.25;;;;;16.00;102785.00;;;;5087562;28;20229;-78
2023/05/18 07:23:35;;;;;;;5.85;1.23;;;;;16.10;102791.00;;;;5086510;28;20195;-79
2023/05/18 07:26:06;;;;;;;2.60;1.15;;;;;16.30;102789.00;;;;5088053;28;20277;-79
2023/05/18 07:28:34;;;;;;;5.75;1.42;;;;;16.40;102789.00;;;;5088278;28;20289;-78
2023/05/18 07:31:01;;;;;;;4.40;1.42;;;;;16.60;102792.00;;;;5086508;28;20882;-76
2023/05/18 07:33:28;;;;;;;6.13;1.70;;;;;16.70;102783.00;;;;5088672;28;20206;-76
2023/05/18 07:35:56;;;;;;;5.80;1.48;;;;;16.90;102787.00;;;;5081590;28;20282;-75
2023/05/18 07:38:23;;;;;;;3.47;1.13;;;;;17.10;102794.00;;;;5087405;28;20205;-76
2023/05/18 07:40:50;;;;;;;2.38;1.02;;;;;17.20;102799.00;;;;5084914;28;20205;-75
2023/05/18 07:43:19;;;;;;;5.15;1.50;;;;;17.30;102801.00;;;;5085373;28;20229;-75
2023/05/18 07:45:46;;;;;;;3.85;1.02;;;;;17.40;102805.00;;;;5086174;28;20205;-75
2023/05/18 07:48:14;;;;;;;3.78;1.10;;;;;17.50;102805.00;;;;5089191;28;20222;-75
2023/05/18 07:50:41;;;;;;;4.63;1.27;;;;;17.60;102802.00;;;;5088175;28;20194;-75
2023/05/18 07:53:09;;;;;;;2.22;1.08;;;;;17.70;102803.00;;;;5086564;28;20205;-76
2023/05/18 07:55:36;;;;;;;5.63;1.45;;;;;17.80;102810.00;;;;5086391;28;20201;-77
2023/05/18 07:58:03;;;;;;;5.03;1.42;;;;;17.90;102812.00;;;;5086655;28;20194;-77
2023/05/18 08:00:33;;;;;;;4.68;1.20;;;;;17.90;102812.00;;;;5087433;28;20286;-76
2023/05/18 08:03:01;;;;;;;10.77;1.30;;;;;18.00;102809.00;;;;5088938;28;20190;-76
2023/05/18 08:05:28;;;;;;;3.15;1.10;;;;;18.10;102804.00;;;;5087117;28;20201;-78
2023/05/18 08:07:55;;;;;;;3.65;1.35;;;;;18.20;102802.00;;;;5086801;28;20229;-76
2023/05/18 08:10:23;;;;;;;2.75;1.10;;;;;18.30;102814.00;;;;5085754;28;20187;-76
2023/05/18 08:12:50;;;;;;;5.80;1.45;;;;;18.40;102814.00;;;;5083095;28;20652;-76
2023/05/18 08:15:18;;;;;;;4.78;1.27;;;;;18.60;102816.00;;;;5078494;28;20197;-77
2023/05/18 08:17:47;;;;;;;4.00;1.45;;;;;18.70;102814.00;;;;5087894;28;20556;-75
2023/05/18 08:20:16;;;;;;;3.95;1.05;;;;;18.80;102816.00;;;;5088223;28;20671;-76
2023/05/18 08:22:43;;;;;;;3.42;1.10;;;;;18.90;102824.00;;;;5085912;28;20194;-76
2023/05/18 08:25:10;;;;;;;2.58;1.05;;;;;19.00;102823.00;;;;5081609;28;20205;-77
2023/05/18 08:27:37;;;;;;;4.30;1.15;;;;;19.10;102826.00;;;;5089991;28;20695;-75
2023/05/18 08:30:05;;;;;;;2.20;0.93;;;;;19.20;102819.00;;;;5089890;28;20198;-76
2023/05/18 08:32:35;;;;;;;4.57;1.05;;;;;19.30;102810.00;;;;5088810;28;20234;-76
2023/05/18 08:35:04;;;;;;;3.55;1.25;;;;;19.40;102810.00;;;;5090454;28;20221;-76
2023/05/18 08:37:32;;;;;;;4.35;1.10;;;;;19.50;102799.00;;;;5090464;28;20194;-76
2023/05/18 08:39:59;;;;;;;2.00;1.30;;;;;19.60;102801.00;;;;5091707;28;20194;-77
2023/05/18 08:42:33;;;;;;;3.17;1.30;;;;;19.60;102805.00;;;;5091694;28;20584;-76
2023/05/18 08:45:11;;;;;;;2.60;1.10;;;;;19.70;102801.00;;;;5091201;28;20564;-76
2023/05/18 08:47:38;;;;;;;2.28;1.23;;;;;19.80;102799.00;;;;5091547;28;20226;-76
2023/05/18 08:50:12;;;;;;;4.63;1.00;;;;;19.90;102807.00;;;;5090649;28;20194;-76
2023/05/18 08:52:44;;;;;;;2.47;1.05;;;;;19.90;102800.00;;;;5091910;28;20660;-76
2023/05/18 08:55:12;;;;;;;4.03;0.98;;;;;19.90;102806.00;;;;5091668;28;20194;-76
2023/05/18 08:57:42;;;;;;;6.07;1.42;;;;;19.90;102794.00;;;;5091774;28;20284;-76
2023/05/18 09:00:12;;;;;;;3.42;1.23;;;;;19.80;102802.00;;;;5091525;28;20198;-77
2023/05/18 09:02:39;;;;;;;3.78;1.52;;;;;19.80;102798.00;;;;5091933;28;20213;-75
2023/05/18 09:05:11;;;;;;;5.22;1.30;;;;;19.80;102789.00;;;;5091398;28;20194;-76
2023/05/18 09:07:40;;;;;;;2.08;0.90;;;;;19.80;102784.00;;;;5090986;28;20649;-76
2023/05/18 09:10:10;;;;;;;3.42;1.33;;;;;19.80;102781.00;;;;5090882;28;20197;-77
2023/05/18 09:12:38;;;;;;;2.10;1.13;;;;;19.80;102784.00;;;;5091186;28;20746;-77
2023/05/18 09:15:07;;;;;;;4.90;1.45;;;;;19.80;102782.00;;;;5089752;28;20198;-76
2023/05/18 09:17:34;;;;;;;5.47;1.30;;;;;19.80;102778.00;;;;5090898;28;20210;-76
2023/05/18 09:20:03;;;;;;;3.15;1.42;;;;;19.80;102770.00;;;;5091255;28;20198;-77
2023/05/18 09:22:34;;;;;;;3.90;1.15;;;;;19.80;102771.00;;;;5091437;28;20255;-76
2023/05/18 09:25:02;;;;;;;4.90;1.15;;;;;19.80;102781.00;;;;5091228;28;20194;-77
2023/05/18 09:27:29;;;;;;;3.38;1.17;;;;;19.90;102780.00;;;;5091056;28;20225;-77
2023/05/18 09:29:58;;;;;;;1.75;0.88;;;;;19.90;102775.00;;;;5090985;28;20202;-77
2023/05/18 09:32:26;;;;;;;1.75;1.30;;;;;20.00;102772.00;;;;5090460;28;20237;-76
2023/05/18 09:34:54;;;;;;;3.50;1.40;;;;;20.10;102775.00;;;;5090826;28;20206;-77
2023/05/18 09:37:22;;;;;;;2.53;1.45;;;;;20.20;102772.00;;;;5090326;28;20237;-77
2023/05/18 09:39:59;;;;;;;5.75;1.45;;;;;20.20;102773.00;;;;5091168;28;20210;-78
2023/05/18 09:42:36;;;;;;;2.67;1.20;;;;;20.30;102773.00;;;;5089816;28;20218;-78
2023/05/18 09:45:04;;;;;;;4.13;1.25;;;;;20.40;102776.00;;;;5089151;28;20198;-78
2023/05/18 09:47:34;;;;;;;3.72;1.23;;;;;20.50;102769.00;;;;5070572;28;20248;-78
2023/05/18 09:50:01;;;;;;;5.88;1.23;;;;;20.60;102765.00;;;;5077834;28;20210;-78
2023/05/18 09:52:28;;;;;;;4.05;1.63;;;;;20.70;102768.00;;;;5087937;28;20195;-78
2023/05/18 09:55:00;;;;;;;5.15;1.40;;;;;20.70;102769.00;;;;5090858;28;20205;-78
2023/05/18 09:57:27;;;;;;;4.40;1.38;;;;;20.90;102765.00;;;;5089862;28;20679;-79
2023/05/18 10:00:09;;;;;;;4.03;1.45;;;;;20.90;102766.00;;;;5090733;28;20560;-79
2023/05/18 10:02:40;;;;;;;7.45;1.80;;;;;21.00;102767.00;;;;5090348;28;20213;-78
2023/05/18 10:05:17;;;;;;;1.98;1.25;;;;;21.10;102759.00;;;;5090001;28;20224;-78
2023/05/18 10:07:45;;;;;;;3.78;1.20;;;;;21.10;102753.00;;;;5090402;28;20217;-77
2023/05/18 10:10:17;;;;;;;3.05;1.20;;;;;21.20;102752.00;;;;5090199;28;20191;-76
2023/05/18 10:12:44;;;;;;;4.95;1.00;;;;;21.30;102748.00;;;;5090463;28;20230;-77
2023/05/18 10:15:15;;;;;;;5.47;1.23;;;;;21.30;102750.00;;;;5089935;28;20202;-76
2023/05/18 10:17:44;;;;;;;3.92;1.30;;;;;21.30;102759.00;;;;5089819;28;20692;-77
2023/05/18 10:20:15;;;;;;;2.15;1.17;;;;;21.30;102752.00;;;;5089230;28;21097;-76
2023/05/18 10:22:44;;;;;;;2.55;1.00;;;;;21.30;102736.00;;;;5090495;28;20210;-78
2023/05/18 10:25:16;;;;;;;1.75;0.98;;;;;21.40;102751.00;;;;5089694;28;20967;-78
2023/05/18 10:27:45;;;;;;;4.03;1.52;;;;;21.40;102744.00;;;;5090014;28;20218;-78
2023/05/18 10:30:14;;;;;;;3.17;1.30;;;;;21.50;102742.00;;;;5089735;28;20203;-76
2023/05/18 10:32:42;;;;;;;5.10;1.45;;;;;21.50;102745.00;;;;5090093;28;20601;-77
2023/05/18 10:35:10;;;;;;;2.00;1.08;;;;;21.50;102737.00;;;;5089516;28;20571;-78
2023/05/18 10:37:41;;;;;;;2.38;1.05;;;;;21.60;102728.00;;;;5090740;28;20317;-77
2023/05/18 10:40:10;;;;;;;4.45;1.90;;;;;21.60;102733.00;;;;5090019;28;20186;-77
2023/05/18 10:42:39;;;;;;;3.63;1.65;;;;;21.60;102737.00;;;;5090122;28;20222;-78
2023/05/18 10:45:09;;;;;;;3.78;1.35;;;;;21.60;102734.00;;;;5090295;28;20198;-77
2023/05/18 10:47:38;;;;;;;4.13;1.35;;;;;21.70;102735.00;;;;5089516;28;20225;-76
2023/05/18 10:50:08;;;;;;;2.90;1.35;;;;;21.70;102735.00;;;;5087812;28;20244;-77
2023/05/18 10:52:37;;;;;;;2.80;1.23;;;;;21.70;102737.00;;;;5089757;28;20194;-78
2023/05/18 10:55:06;;;;;;;2.53;1.17;;;;;21.80;102733.00;;;;5089553;28;20571;-77
2023/05/18 10:57:39;;;;;;;2.65;1.27;;;;;21.80;102732.00;;;;5089132;28;20560;-78
2023/05/18 11:00:09;;;;;;;4.20;1.50;;;;;21.90;102731.00;;;;5088889;28;20203;-77
2023/05/18 11:02:38;;;;;;;3.08;1.42;;;;;22.00;102734.00;;;;5089709;28;20198;-78
2023/05/18 11:05:07;;;;;;;3.13;1.30;;;;;22.10;102721.00;;;;5089926;28;20198;-78
2023/05/18 11:07:34;;;;;;;6.85;1.55;;;;;22.20;102727.00;;;;5089301;28;20214;-78
2023/05/18 11:10:04;;;;;;;1.95;1.17;;;;;22.20;102726.00;;;;5089345;28;20209;-78
2023/05/18 11:12:33;;;;;;;3.53;1.50;;;;;22.30;102732.00;;;;5089505;28;20217;-78
2023/05/18 11:15:02;;;;;;;2.17;1.33;;;;;22.30;102724.00;;;;5089643;28;20222;-79
2023/05/18 11:17:30;;;;;;;4.38;1.60;;;;;22.40;102726.00;;;;5089817;28;20233;-78
2023/05/18 11:20:14;;;;;;;4.75;2.20;;;;;22.40;102721.00;;;;5089010;28;20194;-78
2023/05/18 11:22:47;;;;;;;4.75;1.75;;;;;22.50;102730.00;;;;5089298;28;20206;-78
2023/05/18 11:25:40;;;;;;;4.55;1.45;;;;;22.50;102727.00;;;;5088637;28;20229;-78
2023/05/18 11:28:09;;;;;;;4.30;1.63;;;;;22.60;102712.00;;;;5088438;28;20226;-78
2023/05/18 11:30:51;;;;;;;3.40;1.30;;;;;22.60;102706.00;;;;5089194;28;20221;-78
2023/05/18 11:33:29;;;;;;;3.88;1.40;;;;;22.60;102712.00;;;;5088808;28;20688;-78
2023/05/18 11:36:05;;;;;;;4.47;1.58;;;;;22.70;102710.00;;;;5089336;28;20289;-77
2023/05/18 11:38:47;;;;;;;4.55;1.70;;;;;22.60;102719.00;;;;5089094;28;20202;-77
2023/05/18 11:41:33;;;;;;;3.92;1.77;;;;;22.60;102709.00;;;;5088778;28;20194;-79
2023/05/18 11:44:18;;;;;;;2.63;1.80;;;;;22.70;102708.00;;;;5088912;28;20191;-77
2023/05/18 11:47:00;;;;;;;3.97;1.90;;;;;22.70;102705.00;;;;5088296;28;20209;-78
2023/05/18 11:49:32;;;;;;;4.70;1.80;;;;;22.80;102716.00;;;;5088483;28;20283;-77
2023/05/18 11:52:04;;;;;;;3.65;1.55;;;;;22.80;102703.00;;;;5088578;28;20198;-77
2023/05/18 11:54:45;;;;;;;3.08;1.17;;;;;22.80;102712.00;;;;5089256;28;20198;-77
2023/05/18 11:57:14;;;;;;;4.78;1.88;;;;;22.80;102699.00;;;;5089209;28;20202;-78
2023/05/18 11:59:43;;;;;;;2.58;1.10;;;;;22.80;102707.00;;;;5088535;28;20202;-77
2023/05/18 12:02:18;;;;;;;2.35;1.30;;;;;22.70;102702.00;;;;5088574;28;20283;-78
2023/05/18 12:04:47;;;;;;;4.15;1.83;;;;;22.70;102695.00;;;;5087648;28;20983;-78
2023/05/18 12:07:15;;;;;;;3.58;1.52;;;;;22.70;102690.00;;;;5087918;28;20267;-79
2023/05/18 12:09:43;;;;;;;4.90;2.00;;;;;22.70;102687.00;;;;5088764;28;20229;-78
2023/05/18 12:12:11;;;;;;;3.63;1.98;;;;;22.80;102684.00;;;;5088274;28;20559;-78
2023/05/18 12:14:41;;;;;;;6.18;1.83;;;;;22.80;102682.00;;;;5088482;28;20204;-79
2023/05/18 12:17:10;;;;;;;3.70;1.70;;;;;22.80;102680.00;;;;5088564;28;20206;-79
2023/05/18 12:19:42;;;;;;;3.40;1.70;;;;;22.90;102680.00;;;;5087617;28;20209;-78